sensor_id;sensor_type;location;lat;lon;timestamp;pressure;altitude;pressure_sealevel;temperature;humidity
13836;BME280;6988;52.614;13.500;2023-04-06T00:01:05;54779.16;;;-143.77;71.94
13836;BME280;6988;52.614;13.500;2023-04-06T00:05:57;54768.88;;;-143.77;72.10
13836;BME280;6988;52.614;13.500;2023-04-06T00:10:49;54750.41;;;-143.77;72.17
13836;BME280;6988;52.614;13.500;2023-04-06T00:15:41;54793.50;;;-143.77;71.95
13836;BME280;6988;52.614;13.500;2023-04-06T00:20:34;54768.88;;;-143.77;72.32
13836;BME280;6988;52.614;13.500;2023-04-06T00:25:26;54770.94;;;-143.77;72.06
13836;BME280;6988;52.614;13.500;2023-04-06T00:30:18;54781.19;;;-143.77;71.93
13836;BME280;6988;52.614;13.500;2023-04-06T00:35:10;54762.72;;;-143.77;71.49
13836;BME280;6988;52.614;13.500;2023-04-06T00:40:05;54770.94;;;-143.77;71.33
13836;BME280;6988;52.614;13.500;2023-04-06T00:45:00;54781.19;;;-143.77;71.42
13836;BME280;6988;52.614;13.500;2023-04-06T00:55:08;54766.84;;;-143.77;71.97
13836;BME280;6988;52.614;13.500;2023-04-06T01:00:06;54766.84;;;-143.77;71.89
13836;BME280;6988;52.614;13.500;2023-04-06T01:04:59;54787.34;;;-143.77;71.47
13836;BME280;6988;52.614;13.500;2023-04-06T01:09:59;54764.78;;;-143.77;70.73
13836;BME280;6988;52.614;13.500;2023-04-06T01:14:54;54785.31;;;-143.77;70.78
13836;BME280;6988;52.614;13.500;2023-04-06T01:19:50;54809.94;;;-143.77;71.44
13836;BME280;6988;52.614;13.500;2023-04-06T01:24:51;54791.47;;;-143.77;72.21
13836;BME280;6988;52.614;13.500;2023-04-06T01:36:14;54783.25;;;-143.77;72.84
13836;BME280;6988;52.614;13.500;2023-04-06T01:41:09;54775.03;;;-143.77;72.95
13836;BME280;6988;52.614;13.500;2023-04-06T01:46:11;54799.66;;;-143.77;72.57
13836;BME280;6988;52.614;13.500;2023-04-06T01:51:07;54758.63;;;-143.77;72.37
13836;BME280;6988;52.614;13.500;2023-04-06T01:56:08;54799.66;;;-143.77;72.73
13836;BME280;6988;52.614;13.500;2023-04-06T02:01:09;54773.00;;;-143.77;72.60
13836;BME280;6988;52.614;13.500;2023-04-06T02:06:13;54803.78;;;-143.77;72.64
13836;BME280;6988;52.614;13.500;2023-04-06T02:11:06;54775.03;;;-143.77;72.69
13836;BME280;6988;52.614;13.500;2023-04-06T02:16:06;54791.47;;;-143.77;72.21
13836;BME280;6988;52.614;13.500;2023-04-06T02:20:58;54811.97;;;-143.77;72.44
13836;BME280;6988;52.614;13.500;2023-04-06T02:25:49;54762.72;;;-143.77;73.05
13836;BME280;6988;52.614;13.500;2023-04-06T02:30:41;54783.25;;;-143.77;73.61
13836;BME280;6988;52.614;13.500;2023-04-06T02:35:35;54789.41;;;-143.77;73.61
13836;BME280;6988;52.614;13.500;2023-04-06T02:40:27;54811.97;;;-143.77;74.06
13836;BME280;6988;52.614;13.500;2023-04-06T02:45:20;54811.97;;;-143.77;74.16
13836;BME280;6988;52.614;13.500;2023-04-06T02:50:12;54826.34;;;-143.77;74.68
13836;BME280;6988;52.614;13.500;2023-04-06T02:55:13;54830.44;;;-143.77;74.42
13836;BME280;6988;52.614;13.500;2023-04-06T03:00:07;54834.56;;;-143.77;74.73
13836;BME280;6988;52.614;13.500;2023-04-06T03:05:04;54836.59;;;-143.77;74.75
13836;BME280;6988;52.614;13.500;2023-04-06T03:10:01;54836.59;;;-143.77;74.78
13836;BME280;6988;52.614;13.500;2023-04-06T03:14:57;54795.56;;;-143.77;74.17
13836;BME280;6988;52.614;13.500;2023-04-06T03:19:49;54814.03;;;-143.77;74.59
13836;BME280;6988;52.614;13.500;2023-04-06T03:24:41;54816.09;;;-143.77;74.05
13836;BME280;6988;52.614;13.500;2023-04-06T03:29:33;54814.03;;;-143.77;74.24
13836;BME280;6988;52.614;13.500;2023-04-06T03:34:26;54836.59;;;-143.77;74.76
13836;BME280;6988;52.614;13.500;2023-04-06T03:39:18;54846.88;;;-143.77;74.87
13836;BME280;6988;52.614;13.500;2023-04-06T03:44:10;54818.13;;;-143.77;74.66
13836;BME280;6988;52.614;13.500;2023-04-06T03:49:02;54791.47;;;-143.77;74.26
13836;BME280;6988;52.614;13.500;2023-04-06T03:53:55;54869.44;;;-143.77;74.56
13836;BME280;6988;52.614;13.500;2023-04-06T03:58:47;54844.81;;;-143.77;74.88
13836;BME280;6988;52.614;13.500;2023-04-06T04:03:41;54828.41;;;-143.77;74.79
13836;BME280;6988;52.614;13.500;2023-04-06T04:08:32;54865.34;;;-143.77;74.68
13836;BME280;6988;52.614;13.500;2023-04-06T04:13:27;54848.91;;;-143.77;74.24
13836;BME280;6988;52.614;13.500;2023-04-06T04:18:19;54840.72;;;-143.77;74.89
13836;BME280;6988;52.614;13.500;2023-04-06T04:23:11;54826.34;;;-143.77;75.01
13836;BME280;6988;52.614;13.500;2023-04-06T04:28:04;54885.84;;;-143.77;74.58
13836;BME280;6988;52.614;13.500;2023-04-06T04:32:58;54803.78;;;-143.77;74.80
13836;BME280;6988;52.614;13.500;2023-04-06T04:37:50;54832.50;;;-143.77;74.80
13836;BME280;6988;52.614;13.500;2023-04-06T04:42:42;54857.13;;;-143.77;75.07
13836;BME280;6988;52.614;13.500;2023-04-06T04:47:41;54828.41;;;-143.77;75.49
13836;BME280;6988;52.614;13.500;2023-04-06T04:52:37;54824.28;;;-143.77;75.21
13836;BME280;6988;52.614;13.500;2023-04-06T04:57:38;54871.50;;;-143.77;75.55
13836;BME280;6988;52.614;13.500;2023-04-06T05:02:30;54848.91;;;-143.77;74.96
13836;BME280;6988;52.614;13.500;2023-04-06T05:07:36;54822.25;;;-143.77;75.44
13836;BME280;6988;52.614;13.500;2023-04-06T05:12:30;54834.56;;;-143.77;75.18
13836;BME280;6988;52.614;13.500;2023-04-06T05:17:33;54836.59;;;-143.77;75.24
13836;BME280;6988;52.614;13.500;2023-04-06T05:22:26;54820.19;;;-143.77;76.10
13836;BME280;6988;52.614;13.500;2023-04-06T05:27:29;54820.19;;;-143.77;76.17
13836;BME280;6988;52.614;13.500;2023-04-06T05:32:22;54826.34;;;-143.77;77.12
13836;BME280;6988;52.614;13.500;2023-04-06T05:37:16;54820.19;;;-143.77;77.39
13836;BME280;6988;52.614;13.500;2023-04-06T05:42:08;54809.94;;;-143.77;77.39
13836;BME280;6988;52.614;13.500;2023-04-06T05:47:18;54795.56;;;-143.77;78.21
13836;BME280;6988;52.614;13.500;2023-04-06T05:52:16;54807.88;;;-143.77;78.17
13836;BME280;6988;52.614;13.500;2023-04-06T05:57:10;54791.47;;;-143.77;79.29
13836;BME280;6988;52.614;13.500;2023-04-06T06:02:04;54779.16;;;-143.77;78.58
13836;BME280;6988;52.614;13.500;2023-04-06T06:06:59;54766.84;;;-143.77;78.52
13836;BME280;6988;52.614;13.500;2023-04-06T06:11:59;54789.41;;;-143.77;77.60
13836;BME280;6988;52.614;13.500;2023-04-06T06:16:53;54809.94;;;-143.77;76.91
13836;BME280;6988;52.614;13.500;2023-04-06T06:21:46;54729.91;;;-143.77;75.79
13836;BME280;6988;52.614;13.500;2023-04-06T06:26:40;54703.22;;;-143.77;73.80
13836;BME280;6988;52.614;13.500;2023-04-06T06:31:35;54653.97;;;-143.77;71.99
13836;BME280;6988;52.614;13.500;2023-04-06T06:36:29;54658.06;;;-143.77;70.90
13836;BME280;6988;52.614;13.500;2023-04-06T06:41:22;54614.97;;;-143.77;69.40
13836;BME280;6988;52.614;13.500;2023-04-06T06:46:16;54594.47;;;-143.77;68.45
13836;BME280;6988;52.614;13.500;2023-04-06T06:51:08;54561.63;;;-143.77;66.44
13836;BME280;6988;52.614;13.500;2023-04-06T06:56:00;54547.25;;;-143.77;65.63
13836;BME280;6988;52.614;13.500;2023-04-06T07:00:56;54563.69;;;-143.77;63.85
13836;BME280;6988;52.614;13.500;2023-04-06T07:05:50;54524.69;;;-143.77;62.12
13836;BME280;6988;52.614;13.500;2023-04-06T07:10:44;54479.56;;;-143.77;59.16
13836;BME280;6988;52.614;13.500;2023-04-06T07:15:38;54465.19;;;-143.77;57.59
13836;BME280;6988;52.614;13.500;2023-04-06T07:20:30;54471.34;;;-143.77;58.06
13836;BME280;6988;52.614;13.500;2023-04-06T07:25:23;54475.44;;;-143.77;56.62
13836;BME280;6988;52.614;13.500;2023-04-06T07:30:15;54454.94;;;-143.77;53.74
13836;BME280;6988;52.614;13.500;2023-04-06T07:35:07;54413.88;;;-143.77;54.13
13836;BME280;6988;52.614;13.500;2023-04-06T07:39:59;54368.75;;;-143.77;51.68
13836;BME280;6988;52.614;13.500;2023-04-06T07:44:53;54385.16;;;-143.77;51.78
13836;BME280;6988;52.614;13.500;2023-04-06T07:49:45;54383.13;;;-143.77;48.96
13836;BME280;6988;52.614;13.500;2023-04-06T07:54:38;54403.63;;;-143.77;48.38
13836;BME280;6988;52.614;13.500;2023-04-06T07:59:29;54366.69;;;-143.77;47.40
13836;BME280;6988;52.614;13.500;2023-04-06T08:04:23;54397.47;;;-143.77;47.84
13836;BME280;6988;52.614;13.500;2023-04-06T08:09:15;54340.03;;;-143.77;48.02
13836;BME280;6988;52.614;13.500;2023-04-06T08:14:07;54337.97;;;-143.77;46.20
13836;BME280;6988;52.614;13.500;2023-04-06T08:18:58;54280.53;;;-143.77;44.08
13836;BME280;6988;52.614;13.500;2023-04-06T08:23:52;54298.97;;;-143.77;44.45
13836;BME280;6988;52.614;13.500;2023-04-06T08:28:43;54278.47;;;-143.77;44.02
13836;BME280;6988;52.614;13.500;2023-04-06T08:33:35;54319.50;;;-143.77;43.57
13836;BME280;6988;52.614;13.500;2023-04-06T08:38:29;54266.16;;;-143.77;44.13
13836;BME280;6988;52.614;13.500;2023-04-06T08:43:23;54251.78;;;-143.77;40.73
13836;BME280;6988;52.614;13.500;2023-04-06T08:48:16;54229.22;;;-143.77;41.79
13836;BME280;6988;52.614;13.500;2023-04-06T08:53:11;54175.88;;;-143.77;40.86
13836;BME280;6988;52.614;13.500;2023-04-06T08:58:06;54231.28;;;-143.77;41.41
13836;BME280;6988;52.614;13.500;2023-04-06T09:03:00;54212.81;;;-143.77;39.86
13836;BME280;6988;52.614;13.500;2023-04-06T09:07:52;54188.19;;;-143.77;39.21
13836;BME280;6988;52.614;13.500;2023-04-06T09:12:45;54200.50;;;-143.77;38.78
13836;BME280;6988;52.614;13.500;2023-04-06T09:17:36;54186.13;;;-143.77;41.45
13836;BME280;6988;52.614;13.500;2023-04-06T09:22:36;54159.47;;;-143.77;39.17
13836;BME280;6988;52.614;13.500;2023-04-06T09:27:34;54175.88;;;-143.77;38.10
13836;BME280;6988;52.614;13.500;2023-04-06T09:32:26;54167.66;;;-143.77;37.69
13836;BME280;6988;52.614;13.500;2023-04-06T09:37:18;54163.56;;;-143.77;37.98
13836;BME280;6988;52.614;13.500;2023-04-06T09:42:23;54132.78;;;-143.77;38.61
13836;BME280;6988;52.614;13.500;2023-04-06T09:47:17;54175.88;;;-143.77;38.20
13836;BME280;6988;52.614;13.500;2023-04-06T09:52:12;54118.44;;;-143.77;39.26
13836;BME280;6988;52.614;13.500;2023-04-06T09:57:13;54097.91;;;-143.77;38.06
13836;BME280;6988;52.614;13.500;2023-04-06T10:02:22;54104.06;;;-143.77;35.79
13836;BME280;6988;52.614;13.500;2023-04-06T10:07:18;54089.72;;;-143.77;37.42
13836;BME280;6988;52.614;13.500;2023-04-06T10:12:10;54288.72;;;-143.77;38.35
13836;BME280;6988;52.614;13.500;2023-04-06T10:17:05;54130.75;;;-143.77;36.63
13836;BME280;6988;52.614;13.500;2023-04-06T10:21:59;54270.25;;;-143.77;37.57
13836;BME280;6988;52.614;13.500;2023-04-06T10:26:58;54282.56;;;-143.77;37.81
13836;BME280;6988;52.614;13.500;2023-04-06T10:31:50;54346.19;;;-143.77;38.31
13836;BME280;6988;52.614;13.500;2023-04-06T10:36:44;54097.91;;;-143.77;38.01
13836;BME280;6988;52.614;13.500;2023-04-06T10:41:42;54249.75;;;-143.77;36.45
13836;BME280;6988;52.614;13.500;2023-04-06T10:46:35;54303.09;;;-143.77;37.57
13836;BME280;6988;52.614;13.500;2023-04-06T10:51:28;54319.50;;;-143.77;39.63
13836;BME280;6988;52.614;13.500;2023-04-06T10:56:24;54260.00;;;-143.77;38.36
13836;BME280;6988;52.614;13.500;2023-04-06T11:01:21;54126.63;;;-143.77;38.05
13836;BME280;6988;52.614;13.500;2023-04-06T11:06:21;54132.78;;;-143.77;36.87
13836;BME280;6988;52.614;13.500;2023-04-06T11:11:15;54134.84;;;-143.77;35.22
13836;BME280;6988;52.614;13.500;2023-04-06T11:16:18;54204.59;;;-143.77;36.26
13836;BME280;6988;52.614;13.500;2023-04-06T11:21:10;54218.97;;;-143.77;35.21
13836;BME280;6988;52.614;13.500;2023-04-06T11:26:02;54270.25;;;-143.77;36.02
13836;BME280;6988;52.614;13.500;2023-04-06T11:30:54;54266.16;;;-143.77;37.09
13836;BME280;6988;52.614;13.500;2023-04-06T11:35:47;54264.09;;;-143.77;36.64
13836;BME280;6988;52.614;13.500;2023-04-06T11:40:39;54286.69;;;-143.77;36.60
13836;BME280;6988;52.614;13.500;2023-04-06T11:45:41;54290.78;;;-143.77;36.77
13836;BME280;6988;52.614;13.500;2023-04-06T11:50:33;54106.13;;;-143.77;38.17
13836;BME280;6988;52.614;13.500;2023-04-06T11:55:27;54196.41;;;-143.77;35.69
13836;BME280;6988;52.614;13.500;2023-04-06T12:00:21;54262.06;;;-143.77;36.82
13836;BME280;6988;52.614;13.500;2023-04-06T12:05:13;54169.72;;;-143.77;37.76
13836;BME280;6988;52.614;13.500;2023-04-06T12:10:06;54319.50;;;-143.77;38.28
13836;BME280;6988;52.614;13.500;2023-04-06T12:14:59;54340.03;;;-143.77;37.99
13836;BME280;6988;52.614;13.500;2023-04-06T12:19:51;54307.19;;;-143.77;41.18
13836;BME280;6988;52.614;13.500;2023-04-06T12:24:43;54313.34;;;-143.77;40.55
13836;BME280;6988;52.614;13.500;2023-04-06T12:29:35;54280.53;;;-143.77;39.01
13836;BME280;6988;52.614;13.500;2023-04-06T12:34:28;54327.72;;;-143.77;39.11
13836;BME280;6988;52.614;13.500;2023-04-06T12:39:21;54337.97;;;-143.77;39.49
13836;BME280;6988;52.614;13.500;2023-04-06T12:44:13;54182.03;;;-143.77;39.74
13836;BME280;6988;52.614;13.500;2023-04-06T12:49:05;54200.50;;;-143.77;38.44
13836;BME280;6988;52.614;13.500;2023-04-06T12:53:58;54323.59;;;-143.77;39.69
13836;BME280;6988;52.614;13.500;2023-04-06T12:58:51;54218.97;;;-143.77;39.10
13836;BME280;6988;52.614;13.500;2023-04-06T13:03:43;54284.63;;;-143.77;38.63
13836;BME280;6988;52.614;13.500;2023-04-06T13:08:36;54210.75;;;-143.77;39.18
13836;BME280;6988;52.614;13.500;2023-04-06T13:13:30;54331.81;;;-143.77;38.36
13836;BME280;6988;52.614;13.500;2023-04-06T13:18:23;54286.69;;;-143.77;39.19
13836;BME280;6988;52.614;13.500;2023-04-06T13:23:15;54243.59;;;-143.77;37.13
13836;BME280;6988;52.614;13.500;2023-04-06T13:28:07;54262.06;;;-143.77;38.23
13836;BME280;6988;52.614;13.500;2023-04-06T13:33:01;54251.78;;;-143.77;37.19
13836;BME280;6988;52.614;13.500;2023-04-06T13:44:24;54249.75;;;-143.77;37.73
13836;BME280;6988;52.614;13.500;2023-04-06T13:49:17;54245.63;;;-143.77;38.85
13836;BME280;6988;52.614;13.500;2023-04-06T13:54:10;54323.59;;;-143.77;39.70
13836;BME280;6988;52.614;13.500;2023-04-06T13:59:03;54282.56;;;-143.77;39.32
13836;BME280;6988;52.614;13.500;2023-04-06T14:03:54;54292.84;;;-143.77;38.67
13836;BME280;6988;52.614;13.500;2023-04-06T14:08:48;54305.13;;;-143.77;38.51
13836;BME280;6988;52.614;13.500;2023-04-06T14:13:40;54241.53;;;-143.77;38.58
13836;BME280;6988;52.614;13.500;2023-04-06T14:18:32;54292.84;;;-143.77;38.56
13836;BME280;6988;52.614;13.500;2023-04-06T14:23:24;54317.44;;;-143.77;38.03
13836;BME280;6988;52.614;13.500;2023-04-06T14:28:20;54298.97;;;-143.77;38.06
13836;BME280;6988;52.614;13.500;2023-04-06T14:33:12;54274.38;;;-143.77;38.83
13836;BME280;6988;52.614;13.500;2023-04-06T14:38:04;54249.75;;;-143.77;39.96
13836;BME280;6988;52.614;13.500;2023-04-06T14:42:56;54241.53;;;-143.77;36.45
13836;BME280;6988;52.614;13.500;2023-04-06T14:47:50;54204.59;;;-143.77;38.72
13836;BME280;6988;52.614;13.500;2023-04-06T14:52:41;54171.78;;;-143.77;37.79
13836;BME280;6988;52.614;13.500;2023-04-06T15:04:07;54196.41;;;-143.77;38.46
13836;BME280;6988;52.614;13.500;2023-04-06T15:08:59;54206.66;;;-143.77;38.90
13836;BME280;6988;52.614;13.500;2023-04-06T15:13:51;54188.19;;;-143.77;39.22
13836;BME280;6988;52.614;13.500;2023-04-06T15:18:44;54282.56;;;-143.77;38.98
13836;BME280;6988;52.614;13.500;2023-04-06T15:23:37;54311.28;;;-143.77;39.78
13836;BME280;6988;52.614;13.500;2023-04-06T15:28:29;54282.56;;;-143.77;38.66
13836;BME280;6988;52.614;13.500;2023-04-06T15:33:21;54331.81;;;-143.77;40.61
13836;BME280;6988;52.614;13.500;2023-04-06T15:38:13;54333.88;;;-143.77;40.66
13836;BME280;6988;52.614;13.500;2023-04-06T15:43:07;54354.38;;;-143.77;40.36
13836;BME280;6988;52.614;13.500;2023-04-06T15:47:58;54389.28;;;-143.77;40.69
13836;BME280;6988;52.614;13.500;2023-04-06T15:52:50;54381.06;;;-143.77;40.59
13836;BME280;6988;52.614;13.500;2023-04-06T15:57:42;54401.56;;;-143.77;41.09
13836;BME280;6988;52.614;13.500;2023-04-06T16:02:36;54387.22;;;-143.77;41.20
13836;BME280;6988;52.614;13.500;2023-04-06T16:13:59;54395.44;;;-143.77;41.27
13836;BME280;6988;52.614;13.500;2023-04-06T16:18:52;54397.47;;;-143.77;41.96
13836;BME280;6988;52.614;13.500;2023-04-06T16:23:46;54413.88;;;-143.77;41.94
13836;BME280;6988;52.614;13.500;2023-04-06T16:28:40;54444.66;;;-143.77;42.46
13836;BME280;6988;52.614;13.500;2023-04-06T16:33:32;54418.00;;;-143.77;43.39
13836;BME280;6988;52.614;13.500;2023-04-06T16:38:26;54432.34;;;-143.77;42.91
13836;BME280;6988;52.614;13.500;2023-04-06T16:43:23;54424.16;;;-143.77;44.00
13836;BME280;6988;52.614;13.500;2023-04-06T16:48:15;54456.97;;;-143.77;43.96
13836;BME280;6988;52.614;13.500;2023-04-06T16:53:07;54436.47;;;-143.77;45.17
13836;BME280;6988;52.614;13.500;2023-04-06T16:58:01;54485.72;;;-143.77;45.26
13836;BME280;6988;52.614;13.500;2023-04-06T17:02:53;54463.13;;;-143.77;46.88
13836;BME280;6988;52.614;13.500;2023-04-06T17:07:45;54454.94;;;-143.77;48.24
13836;BME280;6988;52.614;13.500;2023-04-06T17:12:37;54512.38;;;-143.77;49.77
13836;BME280;6988;52.614;13.500;2023-04-06T17:17:30;54518.53;;;-143.77;47.75
13836;BME280;6988;52.614;13.500;2023-04-06T17:22:22;54495.97;;;-143.77;49.68
13836;BME280;6988;52.614;13.500;2023-04-06T17:27:14;54510.34;;;-143.77;48.45
13836;BME280;6988;52.614;13.500;2023-04-06T17:32:06;54545.22;;;-143.77;50.58
13836;BME280;6988;52.614;13.500;2023-04-06T17:36:59;54545.22;;;-143.77;51.02
13836;BME280;6988;52.614;13.500;2023-04-06T17:41:51;54573.94;;;-143.77;52.41
13836;BME280;6988;52.614;13.500;2023-04-06T18:06:22;54614.97;;;-143.77;56.71
13836;BME280;6988;52.614;13.500;2023-04-06T18:11:16;54637.56;;;-143.77;57.66
13836;BME280;6988;52.614;13.500;2023-04-06T18:16:09;54608.81;;;-143.77;57.83
13836;BME280;6988;52.614;13.500;2023-04-06T18:21:02;54625.25;;;-143.77;57.95
13836;BME280;6988;52.614;13.500;2023-04-06T18:25:56;54658.06;;;-143.77;58.80
13836;BME280;6988;52.614;13.500;2023-04-06T18:36:51;54643.72;;;-143.77;59.00
13836;BME280;6988;52.614;13.500;2023-04-06T18:41:44;54664.22;;;-143.77;58.43
13836;BME280;6988;52.614;13.500;2023-04-06T18:46:36;54647.81;;;-143.77;59.04
13836;BME280;6988;52.614;13.500;2023-04-06T18:51:29;54668.34;;;-143.77;59.63
13836;BME280;6988;52.614;13.500;2023-04-06T18:56:21;54662.19;;;-143.77;60.36
13836;BME280;6988;52.614;13.500;2023-04-06T19:01:22;54680.66;;;-143.77;60.63
13836;BME280;6988;52.614;13.500;2023-04-06T19:06:14;54649.88;;;-143.77;60.81
13836;BME280;6988;52.614;13.500;2023-04-06T19:11:06;54672.44;;;-143.77;61.95
13836;BME280;6988;52.614;13.500;2023-04-06T19:15:59;54676.53;;;-143.77;62.16
13836;BME280;6988;52.614;13.500;2023-04-06T19:20:53;54721.69;;;-143.77;62.02
13836;BME280;6988;52.614;13.500;2023-04-06T19:32:18;54680.66;;;-143.77;62.27
13836;BME280;6988;52.614;13.500;2023-04-06T19:37:11;54682.69;;;-143.77;62.13
13836;BME280;6988;52.614;13.500;2023-04-06T19:42:03;54662.19;;;-143.77;61.66
13836;BME280;6988;52.614;13.500;2023-04-06T19:46:55;54688.84;;;-143.77;61.39
13836;BME280;6988;52.614;13.500;2023-04-06T19:51:48;54703.22;;;-143.77;61.82
13836;BME280;6988;52.614;13.500;2023-04-06T19:56:41;54717.59;;;-143.77;61.81
13836;BME280;6988;52.614;13.500;2023-04-06T20:01:32;54684.75;;;-143.77;61.88
13836;BME280;6988;52.614;13.500;2023-04-06T20:12:57;54707.31;;;-143.77;61.83
13836;BME280;6988;52.614;13.500;2023-04-06T20:17:50;54738.09;;;-143.77;61.94
13836;BME280;6988;52.614;13.500;2023-04-06T20:22:42;54697.06;;;-143.77;62.19
13836;BME280;6988;52.614;13.500;2023-04-06T20:27:34;54750.41;;;-143.77;62.67
13836;BME280;6988;52.614;13.500;2023-04-06T20:32:27;54734.00;;;-143.77;62.47
13836;BME280;6988;52.614;13.500;2023-04-06T20:37:19;54738.09;;;-143.77;62.58
13836;BME280;6988;52.614;13.500;2023-04-06T20:42:11;54729.91;;;-143.77;62.35
13836;BME280;6988;52.614;13.500;2023-04-06T20:47:03;54697.06;;;-143.77;62.67
13836;BME280;6988;52.614;13.500;2023-04-06T20:51:56;54721.69;;;-143.77;63.20
13836;BME280;6988;52.614;13.500;2023-04-06T20:56:48;54676.53;;;-143.77;63.02
13836;BME280;6988;52.614;13.500;2023-04-06T21:01:40;54731.94;;;-143.77;63.64
13836;BME280;6988;52.614;13.500;2023-04-06T21:06:31;54723.75;;;-143.77;64.21
13836;BME280;6988;52.614;13.500;2023-04-06T21:12:03;54750.41;;;-143.77;64.34
13836;BME280;6988;52.614;13.500;2023-04-06T21:16:55;54740.16;;;-143.77;64.16
13836;BME280;6988;52.614;13.500;2023-04-06T21:21:47;54738.09;;;-143.77;64.47
13836;BME280;6988;52.614;13.500;2023-04-06T21:26:39;54717.59;;;-143.77;64.45
13836;BME280;6988;52.614;13.500;2023-04-06T21:31:32;54705.28;;;-143.77;64.52
13836;BME280;6988;52.614;13.500;2023-04-06T21:36:30;54719.63;;;-143.77;64.26
13836;BME280;6988;52.614;13.500;2023-04-06T21:41:22;54742.22;;;-143.77;64.05
13836;BME280;6988;52.614;13.500;2023-04-06T22:04:13;54752.47;;;-143.77;64.82
13836;BME280;6988;52.614;13.500;2023-04-06T22:09:05;54770.94;;;-143.77;65.16
13836;BME280;6988;52.614;13.500;2023-04-06T22:13:56;54758.63;;;-143.77;65.24
13836;BME280;6988;52.614;13.500;2023-04-06T22:18:48;54756.56;;;-143.77;65.09
13836;BME280;6988;52.614;13.500;2023-04-06T22:23:42;54762.72;;;-143.77;65.11
13836;BME280;6988;52.614;13.500;2023-04-06T22:28:33;54746.31;;;-143.77;64.05
13836;BME280;6988;52.614;13.500;2023-04-06T22:33:25;54721.69;;;-143.77;63.77
13836;BME280;6988;52.614;13.500;2023-04-06T22:38:17;54697.06;;;-143.77;64.26
13836;BME280;6988;52.614;13.500;2023-04-06T22:43:10;54811.97;;;-143.77;64.43
13836;BME280;6988;52.614;13.500;2023-04-06T22:48:02;54738.09;;;-143.77;64.76
13836;BME280;6988;52.614;13.500;2023-04-06T22:52:54;54760.69;;;-143.77;64.93
13836;BME280;6988;52.614;13.500;2023-04-06T22:57:45;54758.63;;;-143.77;64.80
13836;BME280;6988;52.614;13.500;2023-04-06T23:02:41;54783.25;;;-143.77;64.87
13836;BME280;6988;52.614;13.500;2023-04-06T23:07:32;54779.16;;;-143.77;64.51
13836;BME280;6988;52.614;13.500;2023-04-06T23:12:25;54738.09;;;-143.77;64.69
13836;BME280;6988;52.614;13.500;2023-04-06T23:17:17;54758.63;;;-143.77;64.43
13836;BME280;6988;52.614;13.500;2023-04-06T23:22:10;54756.56;;;-143.77;65.23
13836;BME280;6988;52.614;13.500;2023-04-06T23:27:02;54742.22;;;-143.77;65.47
13836;BME280;6988;52.614;13.500;2023-04-06T23:31:53;54775.03;;;-143.77;65.73
13836;BME280;6988;52.614;13.500;2023-04-06T23:36:45;54781.19;;;-143.77;65.70
13836;BME280;6988;52.614;13.500;2023-04-06T23:41:38;54750.41;;;-143.77;65.43
13836;BME280;6988;52.614;13.500;2023-04-06T23:46:30;54762.72;;;-143.77;65.94
13836;BME280;6988;52.614;13.500;2023-04-06T23:51:22;54773.00;;;-143.77;65.59
13836;BME280;6988;52.614;13.500;2023-04-06T23:56:13;54795.56;;;-143.77;65.46
